Time;durP1;ratioP1;P1;durP2;ratioP2;P2;SDS_P1;SDS_P2;PMS_P1;PMS_P2;Temp;Humidity;BMP_temperature;BMP_pressure;BME280_temperature;BME280_humidity;BME280_pressure;Samples;Min_cycle;Max_cycle;Signal;HPM_P1;HPM_P2
2022/08/27 00:02:18;;;;;;;3.13;1.58;;;;;;;17.15;100.00;101707.81;4991370;28;20045;-78
2022/08/27 00:04:50;;;;;;;2.92;1.20;;;;;;;17.12;100.00;101709.63;5005550;28;20061;-78
2022/08/27 00:07:19;;;;;;;2.88;1.10;;;;;;;17.11;100.00;101708.75;5007752;28;20057;-77
2022/08/27 00:09:47;;;;;;;6.13;1.50;;;;;;;17.09;100.00;101709.69;5005682;28;20042;-78
2022/08/27 00:12:16;;;;;;;5.78;1.00;;;;;;;17.05;100.00;101705.25;4985075;28;20053;-78
2022/08/27 00:14:45;;;;;;;4.75;1.35;;;;;;;17.02;100.00;101710.63;4921631;28;20062;-77
2022/08/27 00:17:14;;;;;;;8.85;1.92;;;;;;;16.97;100.00;101701.81;4989898;28;20495;-78
2022/08/27 00:19:43;;;;;;;6.18;1.45;;;;;;;16.95;100.00;101699.16;5003785;28;20061;-77
2022/08/27 00:22:12;;;;;;;6.18;1.83;;;;;;;16.93;100.00;101700.94;5008848;28;20499;-78
2022/08/27 00:24:40;;;;;;;4.82;1.10;;;;;;;16.93;100.00;101690.31;4987784;28;20058;-78
2022/08/27 00:27:16;;;;;;;7.28;1.45;;;;;;;16.89;100.00;101689.44;4979901;28;20060;-77
2022/08/27 00:29:46;;;;;;;3.10;1.70;;;;;;;16.88;100.00;101684.13;4956062;28;20339;-77
2022/08/27 00:32:16;;;;;;;5.30;1.40;;;;;;;16.87;100.00;101685.91;4967817;28;20554;-77
2022/08/27 00:34:44;;;;;;;3.33;1.35;;;;;;;16.86;100.00;101683.25;5004911;28;20246;-78
2022/08/27 00:37:13;;;;;;;4.80;1.33;;;;;;;16.85;100.00;101686.84;5006343;28;20070;-78
2022/08/27 00:39:42;;;;;;;4.30;1.40;;;;;;;16.82;100.00;101681.50;4983632;28;20522;-77
2022/08/27 00:42:10;;;;;;;5.95;1.30;;;;;;;16.80;100.00;101685.97;4978541;28;20060;-79
2022/08/27 00:44:39;;;;;;;4.55;1.20;;;;;;;16.78;100.00;101680.63;4904780;28;20148;-77
2022/08/27 00:47:15;;;;;;;8.68;1.70;;;;;;;16.77;100.00;101684.22;4947537;28;20053;-77
2022/08/27 00:49:51;;;;;;;4.75;1.33;;;;;;;16.76;100.00;101678.00;4981003;28;20558;-77
2022/08/27 00:52:30;;;;;;;4.00;1.65;;;;;;;16.75;100.00;101684.22;4995342;28;20510;-78
2022/08/27 00:55:17;;;;;;;5.03;1.90;;;;;;;16.73;100.00;101678.03;4996737;28;20053;-78
2022/08/27 00:57:51;;;;;;;4.68;1.35;;;;;;;16.74;100.00;101682.44;4993892;28;20626;-78
2022/08/27 01:00:20;;;;;;;6.40;1.80;;;;;;;16.74;100.00;101679.78;4946966;28;20041;-78
2022/08/27 01:02:48;;;;;;;5.15;2.00;;;;;;;16.76;100.00;101685.09;4989647;28;20237;-77
2022/08/27 01:05:21;;;;;;;6.60;1.95;;;;;;;16.76;100.00;101685.09;4957062;28;20049;-78
2022/08/27 01:08:01;;;;;;;3.35;1.20;;;;;;;16.76;100.00;101672.66;4989520;28;20046;-78
2022/08/27 01:10:33;;;;;;;3.83;1.45;;;;;;;16.79;100.00;101678.88;4972690;28;20034;-78
2022/08/27 01:13:02;;;;;;;3.67;1.55;;;;;;;16.81;100.00;101685.06;4972074;28;20065;-77
2022/08/27 01:15:31;;;;;;;6.82;1.42;;;;;;;16.81;100.00;101679.75;4962685;28;20511;-78
2022/08/27 01:18:03;;;;;;;3.00;1.17;;;;;;;16.81;100.00;101682.41;4971812;28;20505;-77
2022/08/27 01:20:50;;;;;;;5.55;1.55;;;;;;;16.80;100.00;101683.28;4976307;28;20047;-79
2022/08/27 01:23:39;;;;;;;4.03;1.08;;;;;;;16.80;100.00;101689.50;4969010;28;20030;-78
2022/08/27 01:26:10;;;;;;;4.03;1.42;;;;;;;16.82;100.00;101682.41;4958459;28;20050;-78
2022/08/27 01:28:39;;;;;;;3.25;1.35;;;;;;;16.82;100.00;101678.84;4971886;28;20420;-78
2022/08/27 01:31:11;;;;;;;2.93;1.20;;;;;;;16.83;100.00;101681.53;4935214;28;20046;-78
2022/08/27 01:33:40;;;;;;;5.78;1.67;;;;;;;16.84;100.00;101677.97;4985513;28;20554;-77
2022/08/27 01:36:09;;;;;;;2.67;1.23;;;;;;;16.83;100.00;101681.53;4962933;28;20057;-79
2022/08/27 01:38:37;;;;;;;3.50;1.48;;;;;;;16.82;100.00;101679.75;4978629;28;20042;-78
2022/08/27 01:41:06;;;;;;;3.92;1.48;;;;;;;16.81;100.00;101680.63;5007148;28;20060;-78
2022/08/27 01:43:36;;;;;;;2.13;1.23;;;;;;;16.82;100.00;101674.41;5001973;28;20061;-78
2022/08/27 01:46:05;;;;;;;4.10;1.40;;;;;;;16.81;100.00;101671.78;4978889;28;20054;-78
2022/08/27 01:48:33;;;;;;;2.67;1.30;;;;;;;16.80;100.00;101688.63;4985464;28;20692;-78
2022/08/27 01:51:03;;;;;;;4.93;1.40;;;;;;;16.78;100.00;101685.97;4985107;28;20398;-78
2022/08/27 01:53:31;;;;;;;5.65;1.90;;;;;;;16.76;100.00;101687.75;4987159;28;20060;-77
2022/08/27 01:56:00;;;;;;;7.78;1.75;;;;;;;16.74;100.00;101686.91;4985189;28;20057;-78
2022/08/27 01:58:30;;;;;;;3.45;1.35;;;;;;;16.72;100.00;101694.88;4986369;28;20057;-78
2022/08/27 02:01:07;;;;;;;4.28;1.60;;;;;;;16.70;100.00;101688.69;5006395;28;20419;-78
2022/08/27 02:03:38;;;;;;;5.22;1.60;;;;;;;16.68;100.00;101689.63;4954444;28;20176;-77
2022/08/27 02:06:10;;;;;;;3.78;1.42;;;;;;;16.67;100.00;101691.41;5001000;28;20069;-78
2022/08/27 02:08:39;;;;;;;8.07;1.42;;;;;;;16.66;100.00;101691.41;4987316;28;20164;-78
2022/08/27 02:11:08;;;;;;;4.78;1.30;;;;;;;16.64;100.00;101688.75;5007290;28;20061;-78
2022/08/27 02:13:38;;;;;;;5.10;1.70;;;;;;;16.64;100.00;101694.09;4985310;28;20058;-77
2022/08/27 02:16:07;;;;;;;3.50;1.70;;;;;;;16.63;100.00;101694.09;4983026;28;20049;-78
2022/08/27 02:18:37;;;;;;;7.22;2.20;;;;;;;16.65;100.00;101690.50;4952156;28;20550;-79
2022/08/27 02:21:09;;;;;;;6.55;1.40;;;;;;;16.66;100.00;101692.28;4993033;28;20499;-77
2022/08/27 02:23:39;;;;;;;6.65;2.13;;;;;;;16.69;100.00;101689.63;5006769;28;20045;-77
2022/08/27 02:26:07;;;;;;;3.47;1.92;;;;;;;16.71;100.00;101681.59;5008566;28;20053;-77
2022/08/27 02:28:35;;;;;;;7.18;1.67;;;;;;;16.73;100.00;101690.47;4988690;28;20077;-78
2022/08/27 02:31:04;;;;;;;6.50;1.88;;;;;;;16.74;100.00;101682.44;4993241;28;20038;-77
2022/08/27 02:33:34;;;;;;;3.08;1.40;;;;;;;16.76;100.00;101685.97;4969751;28;20061;-79
2022/08/27 02:36:02;;;;;;;4.75;1.58;;;;;;;16.79;100.00;101681.56;5015362;28;20053;-77
2022/08/27 02:38:33;;;;;;;4.25;1.88;;;;;;;16.84;100.00;101690.38;4997393;28;20065;-78
2022/08/27 02:41:02;;;;;;;3.70;1.50;;;;;;;16.87;100.00;101682.38;5006646;28;20404;-79
2022/08/27 02:43:33;;;;;;;4.20;1.60;;;;;;;16.89;100.00;101692.09;4980054;28;20038;-78
2022/08/27 02:46:03;;;;;;;6.03;1.60;;;;;;;16.91;100.00;101692.09;5015821;28;20049;-78
2022/08/27 02:48:36;;;;;;;4.50;1.67;;;;;;;16.92;100.00;101692.09;4971151;28;20050;-78
2022/08/27 02:51:05;;;;;;;9.38;1.80;;;;;;;16.96;100.00;101690.28;4997814;28;20061;-80
2022/08/27 02:53:36;;;;;;;3.45;1.70;;;;;;;16.98;100.00;101698.25;4964796;28;20547;-77
2022/08/27 02:56:06;;;;;;;3.40;1.50;;;;;;;16.95;100.00;101688.50;5005868;28;20050;-77
2022/08/27 02:58:35;;;;;;;3.70;1.30;;;;;;;16.94;100.00;101684.97;4986808;28;20045;-77
2022/08/27 03:01:04;;;;;;;3.30;1.73;;;;;;;16.93;100.00;101685.84;5009749;28;20042;-78
2022/08/27 03:03:38;;;;;;;3.33;1.52;;;;;;;16.93;100.00;101691.16;4989971;28;20183;-76
2022/08/27 03:06:07;;;;;;;5.93;1.30;;;;;;;16.92;100.00;101693.88;4979145;28;20515;-77
2022/08/27 03:08:36;;;;;;;5.38;1.30;;;;;;;16.91;100.00;101692.09;4995959;28;20050;-77
2022/08/27 03:11:22;;;;;;;3.30;1.30;;;;;;;16.89;100.00;101699.22;5002465;28;20072;-78
2022/08/27 03:13:51;;;;;;;4.13;1.42;;;;;;;16.85;100.00;101687.72;4996774;28;20042;-79
2022/08/27 03:16:20;;;;;;;5.43;1.60;;;;;;;16.83;100.00;101683.31;4993012;28;20517;-78
2022/08/27 03:18:48;;;;;;;2.15;1.20;;;;;;;16.80;100.00;101685.97;4991042;28;20331;-78
2022/08/27 03:21:20;;;;;;;4.18;1.85;;;;;;;16.77;100.00;101685.09;4966057;28;20073;-77
2022/08/27 03:23:49;;;;;;;6.03;1.52;;;;;;;16.72;100.00;101681.59;5008127;28;20062;-77
2022/08/27 03:26:18;;;;;;;3.75;1.33;;;;;;;16.71;100.00;101689.56;5009486;28;20037;-78
2022/08/27 03:28:46;;;;;;;5.97;2.10;;;;;;;16.68;100.00;101685.16;5008342;28;20061;-78
2022/08/27 03:31:25;;;;;;;5.88;1.55;;;;;;;16.66;100.00;101691.41;5012098;28;20030;-78
2022/08/27 03:33:58;;;;;;;2.63;1.20;;;;;;;16.63;100.00;101686.09;4994530;28;20050;-79
2022/08/27 03:36:28;;;;;;;8.82;1.50;;;;;;;16.61;100.00;101683.44;4960207;28;20049;-78
2022/08/27 03:38:57;;;;;;;3.95;1.48;;;;;;;16.61;100.00;101682.56;5008544;28;20435;-77
2022/08/27 03:41:29;;;;;;;3.15;2.05;;;;;;;16.56;100.00;101680.84;4987213;28;20050;-80
2022/08/27 03:44:18;;;;;;;7.20;1.77;;;;;;;16.56;100.00;101687.97;4985865;28;20547;-78
2022/08/27 03:46:50;;;;;;;7.47;2.00;;;;;;;16.55;100.00;101680.84;4991374;28;20156;-77
2022/08/27 03:49:20;;;;;;;5.37;1.50;;;;;;;16.52;100.00;101683.53;4978251;28;20057;-78
2022/08/27 03:51:50;;;;;;;5.65;1.80;;;;;;;16.49;100.00;101684.44;4961517;28;20052;-78
2022/08/27 03:54:19;;;;;;;6.65;1.65;;;;;;;16.46;100.00;101686.25;5008861;28;20549;-79
2022/08/27 03:56:48;;;;;;;4.95;1.55;;;;;;;16.42;100.00;101693.38;4970518;28;20046;-79
2022/08/27 03:59:16;;;;;;;3.42;1.40;;;;;;;16.41;100.00;101685.38;4991232;28;20050;-78
2022/08/27 04:01:45;;;;;;;3.17;1.55;;;;;;;16.38;100.00;101691.63;4943957;28;20739;-77
2022/08/27 04:04:13;;;;;;;3.33;1.30;;;;;;;16.34;100.00;101688.09;4998213;28;20346;-77
2022/08/27 04:06:42;;;;;;;3.03;1.60;;;;;;;16.33;100.00;101685.44;4961057;28;20411;-77
2022/08/27 04:09:10;;;;;;;5.50;1.60;;;;;;;16.30;100.00;101688.16;5007165;28;20058;-78
2022/08/27 04:11:38;;;;;;;5.45;1.60;;;;;;;16.27;100.00;101683.72;4973119;28;20534;-77
2022/08/27 04:14:08;;;;;;;3.58;2.17;;;;;;;16.24;100.00;101681.09;4973808;28;20046;-78
2022/08/27 04:16:55;;;;;;;2.83;1.50;;;;;;;16.20;100.00;101683.78;4960183;28;20050;-77
2022/08/27 04:19:26;;;;;;;5.72;1.70;;;;;;;16.16;100.00;101675.84;5015104;28;20303;-77
2022/08/27 04:22:04;;;;;;;6.13;1.80;;;;;;;16.10;100.00;101681.16;4984759;28;20042;-79
2022/08/27 04:24:39;;;;;;;6.15;1.50;;;;;;;16.07;100.00;101680.34;4982337;28;20037;-78
2022/08/27 04:27:09;;;;;;;6.43;1.58;;;;;;;16.02;100.00;101674.16;4987293;28;20409;-79
2022/08/27 04:29:38;;;;;;;4.80;2.47;;;;;;;15.99;100.00;101677.69;4994478;28;20042;-77
2022/08/27 04:32:07;;;;;;;3.67;2.03;;;;;;;15.96;100.00;101670.63;5009031;28;20045;-78
2022/08/27 04:34:36;;;;;;;5.43;1.70;;;;;;;15.94;100.00;101671.53;5004258;28;20040;-77
2022/08/27 04:37:04;;;;;;;3.17;1.80;;;;;;;15.91;100.00;101668.88;4973941;28;20042;-78
2022/08/27 04:39:39;;;;;;;5.53;1.67;;;;;;;15.89;100.00;101676.88;4991193;28;20072;-79
2022/08/27 04:42:07;;;;;;;5.10;1.75;;;;;;;15.89;100.00;101678.66;4973301;28;20402;-78
2022/08/27 04:44:36;;;;;;;5.00;1.98;;;;;;;15.88;100.00;101675.13;5004341;28;20050;-79
2022/08/27 04:47:05;;;;;;;5.05;1.55;;;;;;;15.88;100.00;101675.13;4991561;28;20082;-78
2022/08/27 04:49:36;;;;;;;4.95;1.50;;;;;;;15.90;100.00;101683.97;4986483;28;20037;-78
2022/08/27 04:52:04;;;;;;;6.43;1.70;;;;;;;15.90;100.00;101673.34;4985636;28;20386;-77
2022/08/27 04:54:34;;;;;;;2.58;1.35;;;;;;;15.92;100.00;101676.00;4969658;28;20407;-78
2022/08/27 04:57:04;;;;;;;3.40;1.50;;;;;;;15.96;100.00;101678.59;4990192;28;20050;-77
2022/08/27 04:59:34;;;;;;;6.90;2.13;;;;;;;16.00;100.00;101678.59;4971708;28;20259;-78
2022/08/27 05:02:05;;;;;;;4.50;1.30;;;;;;;16.03;100.00;101679.47;4995211;28;20049;-77
2022/08/27 05:04:37;;;;;;;5.32;1.20;;;;;;;16.06;100.00;101678.56;4991906;28;20045;-78
2022/08/27 05:07:08;;;;;;;5.30;1.75;;;;;;;16.09;100.00;101681.22;5029314;28;20149;-77
2022/08/27 05:09:36;;;;;;;;;;;;;;;16.12;100.00;101682.06;4965994;28;20042;-78
2022/08/27 05:12:06;;;;;;;5.60;1.67;;;;;;;16.16;100.00;101686.47;4973488;28;20390;-78
2022/08/27 05:14:35;;;;;;;5.33;1.87;;;;;;;16.20;100.00;101678.44;5016608;28;20049;-79
2022/08/27 05:17:04;;;;;;;3.08;1.38;;;;;;;16.25;100.00;101676.66;5027159;28;20049;-77
2022/08/27 05:19:32;;;;;;;4.07;2.03;;;;;;;16.33;100.00;101685.44;5004438;28;20263;-77
2022/08/27 05:22:01;;;;;;;5.22;1.45;;;;;;;16.40;100.00;101680.97;4942308;28;20049;-77
2022/08/27 05:24:31;;;;;;;6.15;1.90;;;;;;;16.48;100.00;101681.78;4975395;28;20048;-78
2022/08/27 05:27:01;;;;;;;6.80;2.30;;;;;;;16.57;100.00;101679.06;4999152;28;20038;-78
2022/08/27 05:29:30;;;;;;;5.07;1.80;;;;;;;16.68;100.00;101678.97;5001657;28;20053;-78
2022/08/27 05:31:58;;;;;;;4.65;2.10;;;;;;;16.79;100.00;101681.56;5010229;28;20046;-77
2022/08/27 05:34:29;;;;;;;7.18;1.70;;;;;;;16.91;100.00;101678.78;4984942;28;20038;-78
2022/08/27 05:36:58;;;;;;;4.05;1.40;;;;;;;17.02;100.00;101679.56;4993184;28;20157;-77
2022/08/27 05:39:27;;;;;;;6.57;1.65;;;;;;;17.14;100.00;101682.09;4968383;28;20046;-78
2022/08/27 05:41:56;;;;;;;3.90;1.40;;;;;;;17.27;100.00;101668.63;5008197;28;20057;-76
2022/08/27 05:44:25;;;;;;;4.53;1.60;;;;;;;17.37;100.00;101674.72;4980611;28;20519;-79
2022/08/27 05:47:09;;;;;;;2.63;1.42;;;;;;;17.45;100.00;101681.75;4989320;28;20050;-78
2022/08/27 05:49:38;;;;;;;2.88;1.45;;;;;;;17.52;100.00;101678.13;4992108;28;20057;-76
2022/08/27 05:52:09;;;;;;;3.78;1.25;;;;;;;17.61;100.00;101673.56;4980223;28;20045;-78
2022/08/27 05:54:38;;;;;;;3.22;1.98;;;;;;;17.71;100.00;101685.84;4978873;28;25716;-78
2022/08/27 05:57:07;;;;;;;2.80;1.33;;;;;;;17.80;100.00;101675.06;4978465;28;20046;-77
2022/08/27 06:02:24;;;;;;;4.82;2.05;;;;;;;18.03;100.00;101685.44;4985140;28;20073;-78
2022/08/27 06:04:53;;;;;;;2.08;1.55;;;;;;;18.13;100.00;101680.88;5011819;28;20430;-77
2022/08/27 06:07:22;;;;;;;3.20;1.48;;;;;;;18.23;100.00;101677.16;5010133;28;20046;-78
2022/08/27 06:09:51;;;;;;;5.80;1.38;;;;;;;18.37;100.00;101678.72;4978897;28;20076;-77
2022/08/27 06:12:20;;;;;;;7.50;2.03;;;;;;;18.48;100.00;101685.63;4955050;28;20034;-78
2022/08/27 06:14:56;;;;;;;3.92;1.40;;;;;;;18.55;100.00;101681.09;5007393;28;20046;-77
2022/08/27 06:17:24;;;;;;;5.13;1.50;;;;;;;18.61;100.00;101683.66;5009766;28;20400;-80
2022/08/27 06:19:53;;;;;;;5.90;1.65;;;;;;;18.66;100.00;101684.47;4993102;28;20525;-77
2022/08/27 06:22:22;;;;;;;5.15;1.52;;;;;;;18.70;100.00;101696.84;5009125;28;20123;-78
2022/08/27 06:24:50;;;;;;;3.97;1.17;;;;;;;18.70;100.00;101688.84;4998545;28;20232;-79
2022/08/27 06:27:19;;;;;;;6.40;2.08;;;;;;;18.67;100.00;101701.34;4954832;28;20046;-78
2022/08/27 06:29:47;;;;;;;7.25;1.67;;;;;;;18.57;100.00;101695.28;5002427;28;20255;-78
2022/08/27 06:32:16;;;;;;;4.07;1.20;;;;;;;18.47;100.00;101704.38;4993747;28;20041;-78
2022/08/27 06:34:44;;;;;;;6.22;1.63;;;;;;;18.39;100.00;101711.59;4979185;28;20240;-78
2022/08/27 06:37:13;;;;;;;7.95;1.50;;;;;;;18.29;100.00;101711.72;4995883;28;20521;-78
2022/08/27 06:39:41;;;;;;;8.25;1.40;;;;;;;18.20;100.00;101708.31;4967038;28;20043;-77
2022/08/27 06:42:11;;;;;;;6.07;1.38;;;;;;;18.16;100.00;101710.16;5013457;28;20046;-78
2022/08/27 06:44:40;;;;;;;5.20;1.60;;;;;;;18.10;100.00;101711.13;4941810;28;20045;-77
2022/08/27 06:47:09;;;;;;;6.05;1.75;;;;;;;18.05;100.00;101713.00;4983354;28;20253;-78
2022/08/27 06:49:39;;;;;;;2.55;1.55;;;;;;;18.03;100.00;101724.56;4987623;28;20511;-77
2022/08/27 06:52:08;;;;;;;5.00;1.25;;;;;;;18.01;100.00;101723.72;5002863;28;20046;-77
2022/08/27 06:54:36;;;;;;;3.70;1.40;;;;;;;17.99;100.00;101728.19;4992632;28;20042;-78
2022/08/27 06:57:04;;;;;;;3.38;1.52;;;;;;;17.98;100.00;101724.66;4989588;28;20429;-77
2022/08/27 06:59:33;;;;;;;5.47;1.65;;;;;;;17.99;100.00;101728.19;4950683;28;20038;-77
2022/08/27 07:02:03;;;;;;;;;;;;;;;18.00;100.00;101725.50;4983634;28;20052;-77
2022/08/27 07:04:32;;;;;;;6.97;2.08;;;;;;;18.04;100.00;101723.69;5001409;28;19921;-78
2022/08/27 07:07:02;;;;;;;9.60;1.50;;;;;;;18.07;100.00;101732.53;4973743;28;20267;-79
2022/08/27 07:09:33;;;;;;;6.28;1.52;;;;;;;18.11;100.00;101718.22;4972590;28;20042;-78
2022/08/27 07:12:03;;;;;;;3.33;1.30;;;;;;;18.14;100.00;101727.09;4984680;28;20283;-78
2022/08/27 07:14:36;;;;;;;4.05;1.50;;;;;;;18.16;100.00;101726.16;4954311;28;20050;-78
2022/08/27 07:17:07;;;;;;;5.30;1.05;;;;;;;18.17;100.00;101732.41;4989064;28;20344;-79
2022/08/27 07:19:44;;;;;;;4.63;1.40;;;;;;;18.19;100.00;101734.13;4956948;28;20543;-78
2022/08/27 07:22:12;;;;;;;6.68;1.88;;;;;;;18.23;100.00;101734.97;4981922;28;20275;-77
2022/08/27 07:24:40;;;;;;;2.95;1.20;;;;;;;18.24;100.00;101728.72;4989516;28;20053;-79
2022/08/27 07:27:09;;;;;;;3.33;1.25;;;;;;;18.27;100.00;101731.34;4994352;28;20105;-77
2022/08/27 07:29:38;;;;;;;6.97;1.70;;;;;;;18.34;100.00;101740.16;4987513;28;20044;-78
2022/08/27 07:32:06;;;;;;;5.57;3.13;;;;;;;18.44;100.00;101742.63;4988791;28;20041;-77
2022/08/27 07:34:38;;;;;;;7.90;1.67;;;;;;;18.62;100.00;101745.91;5004079;28;20046;-78
2022/08/27 07:37:08;;;;;;;3.83;1.48;;;;;;;18.68;100.00;101741.38;4987129;28;20423;-77
2022/08/27 07:39:36;;;;;;;9.18;1.92;;;;;;;18.69;100.00;101747.59;4970285;28;20066;-77
2022/08/27 07:44:51;;;;;;;6.60;1.50;;;;;;;18.64;100.00;101749.47;4955529;28;20044;-77
2022/08/27 07:47:20;;;;;;;9.57;2.30;;;;;;;18.63;100.00;101753.03;4952653;28;20054;-77
2022/08/27 07:49:53;;;;;;;4.25;1.30;;;;;;;18.61;100.00;101750.38;4966579;28;20054;-78
2022/08/27 07:52:24;;;;;;;5.20;1.35;;;;;;;18.60;100.00;101755.75;4939644;28;20061;-78
2022/08/27 07:54:54;;;;;;;5.38;1.20;;;;;;;18.59;100.00;101759.34;4970587;28;20041;-78
2022/08/27 07:57:22;;;;;;;6.03;1.55;;;;;;;18.59;100.00;101752.19;4940420;28;20058;-77
2022/08/27 07:59:52;;;;;;;5.63;1.48;;;;;;;18.64;100.00;101758.34;4965589;28;20049;-77
2022/08/27 08:02:20;;;;;;;4.75;1.70;;;;;;;18.68;100.00;101762.72;4962817;28;20053;-78
2022/08/27 08:04:49;;;;;;;6.75;1.40;;;;;;;18.71;100.00;101759.13;4976985;28;20247;-77
2022/08/27 08:07:17;;;;;;;5.65;1.50;;;;;;;18.77;100.00;101758.13;4954722;28;20066;-78
2022/08/27 08:09:49;;;;;;;6.18;1.70;;;;;;;18.83;100.00;101756.31;4965934;28;20655;-79
2022/08/27 08:12:18;;;;;;;9.15;1.48;;;;;;;18.88;100.00;101759.78;4937173;28;20062;-77
2022/08/27 08:14:56;;;;;;;6.45;1.20;;;;;;;18.97;100.00;101760.53;4971776;28;20050;-77
2022/08/27 08:17:25;;;;;;;7.90;1.38;;;;;;;19.06;100.00;101755.03;4952039;28;20083;-77
2022/08/27 08:19:55;;;;;;;6.55;1.63;;;;;;;19.18;100.00;101760.13;4951657;28;20046;-76
2022/08/27 08:22:44;;;;;;;4.78;1.45;;;;;;;19.27;100.00;101754.63;4962142;28;20046;-77
2022/08/27 08:25:13;;;;;;;7.07;1.63;;;;;;;19.30;100.00;101756.38;4953292;28;20050;-77
2022/08/27 08:27:42;;;;;;;5.30;1.35;;;;;;;19.27;100.00;101778.66;4959172;28;20253;-77
2022/08/27 08:30:13;;;;;;;7.43;1.90;;;;;;;19.24;100.00;101764.47;4984922;28;20046;-77
2022/08/27 08:32:42;;;;;;;7.50;1.75;;;;;;;19.21;100.00;101770.78;4953961;28;20523;-79
2022/08/27 08:35:12;;;;;;;3.28;1.23;;;;;;;19.15;100.00;101770.00;4985937;28;20050;-77
2022/08/27 08:37:44;;;;;;;5.47;1.33;;;;;;;19.08;100.00;101778.13;4974944;28;20615;-77
2022/08/27 08:40:44;;;;;;;4.95;1.67;;;;;;;19.08;99.46;101771.91;4953084;28;20045;-77
2022/08/27 08:43:25;;;;;;;7.65;1.30;;;;;;;19.07;99.56;101778.13;4964583;28;20053;-78
2022/08/27 08:45:57;;;;;;;6.13;1.60;;;;;;;19.07;98.83;101771.03;4992323;28;20038;-78
2022/08/27 08:48:28;;;;;;;4.20;1.48;;;;;;;19.08;98.46;101778.13;4970482;28;20042;-82
2022/08/27 08:51:09;;;;;;;2.75;1.23;;;;;;;19.08;97.54;101777.25;4980890;28;20038;-82
2022/08/27 08:54:03;;;;;;;5.10;1.58;;;;;;;19.11;98.95;101776.31;4986386;28;20043;-84
2022/08/27 08:56:50;;;;;;;7.57;1.30;;;;;;;19.11;99.07;101781.66;5006491;28;20068;-78
2022/08/27 08:59:30;;;;;;;4.85;1.50;;;;;;;19.13;99.48;101793.19;4981396;28;20551;-79
2022/08/27 09:01:59;;;;;;;4.55;1.60;;;;;;;19.17;99.32;101792.22;4961079;28;20534;-77
2022/08/27 09:04:28;;;;;;;5.38;1.40;;;;;;;19.18;98.76;101788.66;4973379;28;20046;-78
2022/08/27 09:07:07;;;;;;;6.90;1.38;;;;;;;19.24;99.30;101784.09;5004737;28;20049;-77
2022/08/27 09:10:06;;;;;;;5.55;1.50;;;;;;;19.28;98.74;101795.56;4969667;28;20038;-78
2022/08/27 09:12:35;;;;;;;5.32;1.40;;;;;;;19.33;98.83;101788.38;4953521;28;20046;-77
2022/08/27 09:15:07;;;;;;;4.38;1.50;;;;;;;19.34;98.23;101791.91;4997421;28;20053;-79
2022/08/27 09:17:43;;;;;;;6.38;1.80;;;;;;;19.36;97.62;101791.00;4938273;28;20259;-79
2022/08/27 09:20:13;;;;;;;3.75;1.60;;;;;;;19.38;97.25;101790.97;4971269;28;20061;-78
2022/08/27 09:22:56;;;;;;;7.93;3.50;;;;;;;19.38;96.41;101804.34;4987197;28;20046;-78
2022/08/27 09:25:30;;;;;;;5.05;1.20;;;;;;;19.33;96.49;101801.72;4971709;28;20046;-78
2022/08/27 09:28:04;;;;;;;6.45;1.42;;;;;;;19.32;96.41;101813.34;4971234;28;20049;-78
2022/08/27 09:30:42;;;;;;;6.53;1.98;;;;;;;19.31;95.98;101810.69;4978631;28;20415;-78
2022/08/27 09:33:11;;;;;;;5.38;1.50;;;;;;;19.29;95.80;101808.03;4962544;28;20269;-78
2022/08/27 09:35:43;;;;;;;5.57;1.40;;;;;;;19.32;95.75;101818.69;4953643;28;20039;-77
2022/08/27 09:38:26;;;;;;;3.90;1.48;;;;;;;19.32;92.84;101807.09;5001168;28;20045;-78
2022/08/27 09:40:59;;;;;;;3.80;1.35;;;;;;;19.30;94.55;101809.81;4992147;28;20046;-77
2022/08/27 09:43:30;;;;;;;4.50;1.30;;;;;;;19.35;95.71;101815.94;5013635;28;20419;-78
2022/08/27 09:46:04;;;;;;;4.25;1.17;;;;;;;19.38;94.28;101809.69;5017675;28;20048;-77
2022/08/27 09:48:35;;;;;;;4.18;1.35;;;;;;;19.43;95.12;101815.81;5001894;28;20399;-78
2022/08/27 09:51:08;;;;;;;6.10;1.50;;;;;;;19.54;94.68;101813.81;5000991;28;20049;-77
2022/08/27 09:53:40;;;;;;;14.32;2.53;;;;;;;19.68;94.87;101813.56;5010686;28;20060;-78
2022/08/27 09:56:19;;;;;;;6.70;1.45;;;;;;;19.85;93.56;101811.47;5018172;28;20037;-78
2022/08/27 09:59:09;;;;;;;7.55;1.40;;;;;;;20.11;91.69;101799.31;5017672;28;20347;-78
2022/08/27 10:01:51;;;;;;;4.00;1.60;;;;;;;20.27;90.44;101799.91;4999835;28;20370;-78
2022/08/27 10:04:45;;;;;;;5.22;1.20;;;;;;;20.43;90.39;101800.41;5019765;28;20053;-78
2022/08/27 10:07:21;;;;;;;4.97;1.30;;;;;;;20.56;91.57;101809.94;5010515;28;20386;-79
2022/08/27 10:09:57;;;;;;;4.65;1.10;;;;;;;20.69;90.11;101812.38;5011037;28;20065;-77
2022/08/27 10:12:43;;;;;;;3.75;1.40;;;;;;;20.76;88.32;101809.50;5023677;28;20045;-77
2022/08/27 10:15:13;;;;;;;7.53;1.30;;;;;;;20.88;88.31;101811.00;5025485;28;20050;-78
2022/08/27 10:18:01;;;;;;;5.43;1.25;;;;;;;20.88;87.57;101808.31;5001030;28;20056;-76
2022/08/27 10:20:29;;;;;;;5.18;1.60;;;;;;;20.82;89.76;101813.84;4981975;28;20391;-78
2022/08/27 10:23:25;;;;;;;3.38;1.10;;;;;;;20.72;88.02;101809.59;5013505;28;20050;-77
2022/08/27 10:26:03;;;;;;;9.82;1.45;;;;;;;20.61;87.82;101818.78;5015419;28;20259;-76
2022/08/27 10:28:39;;;;;;;3.95;1.13;;;;;;;20.52;87.92;101810.03;5001781;28;20050;-77
2022/08/27 10:31:16;;;;;;;4.90;1.67;;;;;;;20.51;89.57;101816.31;4999679;28;20046;-78
2022/08/27 10:34:15;;;;;;;5.25;1.13;;;;;;;20.59;88.79;101815.22;4995061;28;20038;-78
2022/08/27 10:36:50;;;;;;;4.55;1.00;;;;;;;20.66;89.78;101810.63;4981421;28;20496;-77
2022/08/27 10:39:39;;;;;;;4.40;1.25;;;;;;;20.76;89.60;101819.34;4987836;28;20050;-78
2022/08/27 10:42:22;;;;;;;2.92;1.13;;;;;;;20.76;87.28;101806.81;4984112;28;20076;-77
2022/08/27 10:45:06;;;;;;;4.95;1.50;;;;;;;20.84;85.20;101817.34;4996898;28;20126;-78
2022/08/27 10:48:09;;;;;;;3.28;1.20;;;;;;;20.87;83.51;101809.25;4996258;28;20037;-80
2022/08/27 10:50:56;;;;;;;7.55;1.77;;;;;;;20.80;84.61;101804.94;5011949;28;20058;-83
2022/08/27 10:54:06;;;;;;;4.05;1.17;;;;;;;20.75;86.79;101817.56;4985615;28;20171;-81
2022/08/27 10:56:42;;;;;;;5.38;1.45;;;;;;;20.74;87.63;101813.16;4980771;28;20407;-78
2022/08/27 10:59:27;;;;;;;3.85;1.05;;;;;;;20.87;85.99;101813.69;4996720;28;20576;-79
2022/08/27 11:02:05;;;;;;;10.93;3.67;;;;;;;20.98;87.65;101812.53;4991216;28;20034;-79
2022/08/27 11:04:45;;;;;;;5.40;1.08;;;;;;;21.20;88.36;101809.31;5003096;28;20518;-81
2022/08/27 11:07:22;;;;;;;8.20;1.20;;;;;;;21.29;86.21;101809.06;4973316;28;20064;-81
2022/08/27 11:10:09;;;;;;;3.42;1.00;;;;;;;21.35;85.16;101808.91;5006102;28;20069;-82
2022/08/27 11:12:43;;;;;;;4.82;1.10;;;;;;;21.46;84.44;101807.78;4985454;28;20034;-80
2022/08/27 11:15:19;;;;;;;5.95;1.23;;;;;;;21.47;84.13;101809.53;4970689;28;20251;-81
2022/08/27 11:18:10;;;;;;;6.65;1.60;;;;;;;21.54;84.78;101814.69;5011673;28;20050;-81
2022/08/27 11:20:53;;;;;;;6.35;1.20;;;;;;;21.62;81.22;101814.47;4978952;28;20387;-81
2022/08/27 11:23:44;;;;;;;7.13;1.20;;;;;;;21.74;84.09;101816.81;4961606;28;20534;-81
2022/08/27 11:26:13;;;;;;;5.18;1.23;;;;;;;21.86;84.23;101809.34;4993885;28;20048;-81
2022/08/27 11:28:51;;;;;;;3.90;1.42;;;;;;;21.95;82.80;101819.81;4994619;28;20034;-80
2022/08/27 11:31:19;;;;;;;4.82;1.50;;;;;;;22.05;82.91;101821.28;5009616;28;20057;-81
2022/08/27 11:34:13;;;;;;;4.28;1.75;;;;;;;22.09;81.36;101809.53;4983902;28;20061;-80
2022/08/27 11:37:06;;;;;;;5.28;1.50;;;;;;;22.02;81.73;101815.13;4993359;28;20498;-80
2022/08/27 11:39:42;;;;;;;4.93;1.70;;;;;;;21.85;80.53;101815.63;4988508;28;20056;-80
2022/08/27 11:42:32;;;;;;;7.30;1.42;;;;;;;21.85;81.61;101811.13;4993858;28;20534;-81
2022/08/27 11:45:29;;;;;;;4.80;1.48;;;;;;;21.94;81.35;101818.91;4974478;28;20038;-82
2022/08/27 11:48:13;;;;;;;3.75;1.25;;;;;;;21.99;80.24;101818.81;4993146;28;20052;-83
2022/08/27 11:50:53;;;;;;;11.95;1.58;;;;;;;21.97;78.84;101813.47;5006037;28;20056;-81
2022/08/27 11:53:34;;;;;;;8.25;2.03;;;;;;;21.90;79.55;101811.88;4961049;28;20160;-79